Time;durP1;ratioP1;P1;durP2;ratioP2;P2;SDS_P1;SDS_P2;PMS_P1;PMS_P2;Temp;Humidity;BMP_temperature;BMP_pressure;BME280_temperature;BME280_humidity;BME280_pressure;Samples;Min_cycle;Max_cycle;Signal;HPM_P1;HPM_P2
2020/12/04 00:00:08;;;;;;;68.05;31.08;;;;;;;4.08;85.14;97177.19;4985102;28;20044;-60
2020/12/04 00:02:34;;;;;;;55.60;26.30;;;;;;;3.50;85.62;97103.81;4990368;28;20053;-59
2020/12/04 00:04:59;;;;;;;61.70;28.98;;;;;;;3.19;85.21;97056.66;4985206;28;20034;-60
2020/12/04 00:07:24;;;;;;;89.95;43.63;;;;;;;3.90;85.35;97179.19;4984937;28;20039;-61
2020/12/04 00:09:50;;;;;;;91.10;42.75;;;;;;;3.60;86.84;97174.69;4985040;28;20452;-60
2020/12/04 00:12:15;;;;;;;79.00;39.45;;;;;;;2.96;89.24;97140.81;4986361;28;20030;-62
2020/12/04 00:14:41;;;;;;;82.22;39.92;;;;;;;2.84;88.89;97143.38;4985118;28;20045;-61
2020/12/04 00:17:06;;;;;;;91.82;41.13;;;;;;;3.51;87.46;97176.59;4984550;28;20053;-59
2020/12/04 00:19:32;;;;;;;73.85;35.50;;;;;;;3.55;86.38;97177.56;4984820;28;20058;-63
2020/12/04 00:21:58;;;;;;;73.97;34.38;;;;;;;3.56;86.61;97179.19;4986171;28;20022;-59
2020/12/04 00:24:24;;;;;;;70.35;35.15;;;;;;;3.07;86.61;97102.97;4986524;28;20133;-60
2020/12/04 00:26:49;;;;;;;78.95;37.30;;;;;;;3.64;85.86;97178.38;4986025;28;20184;-60
2020/12/04 00:29:15;;;;;;;69.80;34.38;;;;;;;2.92;85.31;97114.41;4984502;28;20077;-60
2020/12/04 00:31:41;;;;;;;74.20;34.30;;;;;;;3.14;86.29;97117.00;4984767;28;20561;-60
2020/12/04 00:34:07;;;;;;;75.35;36.50;;;;;;;3.59;86.46;97186.75;4986077;28;20435;-60
2020/12/04 00:36:33;;;;;;;74.13;34.30;;;;;;;3.75;85.72;97176.91;4984456;28;20424;-60
2020/12/04 00:38:59;;;;;;;73.30;33.25;;;;;;;3.77;85.14;97182.88;4984363;28;20041;-61
2020/12/04 00:41:24;;;;;;;75.68;33.97;;;;;;;3.68;85.74;97186.75;4985776;28;20541;-60
2020/12/04 00:43:51;;;;;;;72.20;34.53;;;;;;;3.71;86.20;97186.91;4984308;28;20038;-60
2020/12/04 00:46:17;;;;;;;74.97;34.70;;;;;;;3.47;85.84;97136.50;4985429;28;20506;-62
2020/12/04 00:48:44;;;;;;;77.90;35.92;;;;;;;3.78;85.18;97184.47;4985840;28;20050;-60
2020/12/04 00:51:10;;;;;;;68.43;32.42;;;;;;;3.72;84.93;97185.78;4985538;28;20129;-61
2020/12/04 00:53:35;;;;;;;70.78;35.10;;;;;;;3.70;85.07;97174.34;4984285;28;20106;-63
2020/12/04 00:56:01;;;;;;;70.13;35.60;;;;;;;3.53;85.17;97136.00;4984125;28;20585;-61
2020/12/04 00:58:26;;;;;;;69.55;34.85;;;;;;;3.71;85.08;97175.97;4985628;28;20038;-62
2020/12/04 01:00:52;;;;;;;75.80;35.42;;;;;;;3.74;85.61;97175.31;4985639;28;20080;-62
2020/12/04 01:03:18;;;;;;;75.60;37.25;;;;;;;3.46;85.28;97124.75;4985810;28;20442;-61
2020/12/04 01:05:44;;;;;;;78.68;36.53;;;;;;;3.70;85.37;97174.34;4985120;28;20560;-62
2020/12/04 01:08:10;;;;;;;83.40;36.67;;;;;;;3.78;85.12;97159.84;4984018;28;20153;-61
2020/12/04 01:10:35;;;;;;;65.95;33.47;;;;;;;3.81;85.02;97170.13;4985545;28;20546;-61
2020/12/04 01:13:01;;;;;;;69.65;33.65;;;;;;;3.67;85.20;97158.56;4984088;28;20906;-60
2020/12/04 01:15:26;;;;;;;74.63;33.85;;;;;;;3.79;85.36;97163.38;4985576;28;20113;-61
2020/12/04 01:17:52;;;;;;;77.00;35.25;;;;;;;3.82;85.61;97171.78;4983535;28;20048;-61
2020/12/04 01:20:17;;;;;;;80.72;35.65;;;;;;;3.45;85.51;97090.28;4983800;28;20045;-60
2020/12/04 01:22:42;;;;;;;72.07;35.10;;;;;;;3.90;85.31;97168.22;4983731;28;20093;-61
2020/12/04 01:25:08;;;;;;;64.78;33.30;;;;;;;3.55;87.54;97161.16;4983856;28;20474;-62
2020/12/04 01:27:33;;;;;;;65.72;32.08;;;;;;;3.83;86.19;97161.59;4985244;28;20035;-62
2020/12/04 01:29:59;;;;;;;70.13;33.97;;;;;;;3.05;85.86;97036.84;4983630;28;20309;-60
2020/12/04 01:32:24;;;;;;;72.65;33.90;;;;;;;3.49;85.38;97077.56;4983427;28;20026;-62
2020/12/04 01:34:50;;;;;;;72.28;33.33;;;;;;;3.81;86.03;97145.47;4983745;28;20037;-62
2020/12/04 01:37:15;;;;;;;75.00;34.00;;;;;;;3.74;84.87;97130.69;4985108;28;20097;-61
2020/12/04 01:39:41;;;;;;;70.95;33.60;;;;;;;3.57;85.11;97104.13;4985489;28;20512;-61
2020/12/04 01:42:06;;;;;;;74.50;35.10;;;;;;;1.70;85.58;96786.97;4983518;28;20022;-62
2020/12/04 01:44:32;;;;;;;73.20;35.80;;;;;;;4.01;84.99;97125.66;4970952;28;20117;-61
2020/12/04 01:46:58;;;;;;;73.45;35.28;;;;;;;3.91;84.88;97131.47;4965601;28;20069;-62
2020/12/04 01:49:23;;;;;;;74.32;34.53;;;;;;;3.35;86.68;97090.59;4964292;28;20556;-61
2020/12/04 01:51:53;;;;;;;69.95;34.03;;;;;;;3.77;86.80;97133.56;4963987;28;20037;-61
2020/12/04 01:54:19;;;;;;;72.05;34.75;;;;;;;3.82;86.02;97127.13;4965944;28;20449;-61
2020/12/04 01:56:47;;;;;;;69.07;34.20;;;;;;;3.56;86.35;97075.13;4965508;28;20058;-61
2020/12/04 01:59:12;;;;;;;67.43;33.28;;;;;;;3.83;85.93;97118.56;4964354;28;20101;-60
2020/12/04 02:01:41;;;;;;;74.65;34.55;;;;;;;3.91;85.78;97117.75;4965648;28;20457;-62
2020/12/04 02:04:08;;;;;;;73.72;35.97;;;;;;;3.88;85.77;97123.06;4964302;28;20042;-60
2020/12/04 02:06:43;;;;;;;64.70;31.60;;;;;;;3.72;86.76;97122.78;4964128;28;20031;-62
2020/12/04 02:09:12;;;;;;;66.93;33.95;;;;;;;3.76;86.58;97129.22;4964433;28;20049;-61
2020/12/04 02:11:40;;;;;;;65.03;32.75;;;;;;;3.39;86.74;97083.34;4965893;28;20065;-60
2020/12/04 02:14:08;;;;;;;69.20;34.78;;;;;;;3.09;87.23;97051.50;4964215;28;20441;-61
2020/12/04 02:16:37;;;;;;;62.10;32.10;;;;;;;0.90;90.29;96780.03;4964213;28;20042;-61
2020/12/04 02:19:03;;;;;;;71.30;34.17;;;;;;;2.75;91.57;97067.88;4967679;28;20047;-61
2020/12/04 02:21:28;;;;;;;74.95;32.83;;;;;;;2.77;94.27;97118.41;4967471;28;20035;-62
2020/12/04 02:23:53;;;;;;;69.10;32.75;;;;;;;2.88;93.35;97094.28;4967898;28;20165;-60
2020/12/04 02:26:21;;;;;;;68.63;33.30;;;;;;;3.18;91.95;97112.50;4967749;28;20118;-61
2020/12/04 02:28:48;;;;;;;75.07;35.38;;;;;;;3.18;92.11;97112.50;4969009;28;20034;-61
2020/12/04 02:31:14;;;;;;;75.57;35.08;;;;;;;2.81;92.58;97099.44;4968644;28;20043;-60
2020/12/04 02:33:40;;;;;;;70.00;34.55;;;;;;;2.17;94.05;97010.84;4969090;28;20062;-62
2020/12/04 02:36:06;;;;;;;75.53;35.47;;;;;;;2.17;96.09;97048.25;4967150;28;20553;-61
2020/12/04 02:38:32;;;;;;;77.93;38.33;;;;;;;2.94;94.88;97084.81;4969287;28;20038;-60
2020/12/04 02:40:57;;;;;;;78.75;38.28;;;;;;;2.68;94.05;97086.69;4967122;28;20039;-62
2020/12/04 02:43:23;;;;;;;69.05;35.20;;;;;;;2.82;93.42;97095.56;4967367;28;20546;-60
2020/12/04 02:45:50;;;;;;;72.25;35.63;;;;;;;2.96;94.72;97099.75;4968501;28;20039;-61
2020/12/04 02:48:16;;;;;;;78.55;35.15;;;;;;;3.11;92.00;97084.81;4966945;28;20038;-61
2020/12/04 02:50:41;;;;;;;72.95;33.53;;;;;;;1.89;91.51;96872.09;4968324;28;20049;-61
2020/12/04 02:53:07;;;;;;;74.32;34.72;;;;;;;3.20;91.24;97077.41;4966881;28;20036;-62
2020/12/04 02:55:33;;;;;;;74.38;33.83;;;;;;;3.23;91.86;97092.38;4968245;28;20049;-60
2020/12/04 02:57:58;;;;;;;73.05;35.72;;;;;;;3.39;92.31;97097.03;4966827;28;20105;-62
2020/12/04 03:00:24;;;;;;;77.25;34.75;;;;;;;3.46;90.79;97086.44;4966688;28;20505;-60
2020/12/04 03:02:50;;;;;;;69.57;33.50;;;;;;;3.64;89.31;97076.22;4966906;28;20049;-61
2020/12/04 03:05:15;;;;;;;67.30;35.42;;;;;;;3.60;88.97;97076.09;4966909;28;20494;-61
2020/12/04 03:07:41;;;;;;;73.10;34.95;;;;;;;3.33;90.74;97049.06;4966790;28;20035;-61
2020/12/04 03:10:07;;;;;;;69.22;33.28;;;;;;;3.44;90.33;97061.28;4968188;28;20561;-60
2020/12/04 03:12:37;;;;;;;67.70;32.72;;;;;;;2.70;90.34;96953.19;4966687;28;20133;-61
2020/12/04 03:15:04;;;;;;;73.63;33.55;;;;;;;3.42;90.60;97047.13;4966577;28;20031;-62
2020/12/04 03:17:30;;;;;;;69.80;33.88;;;;;;;3.65;90.14;97075.91;4966428;28;20093;-61
2020/12/04 03:19:57;;;;;;;95.32;44.65;;;;;;;3.70;90.24;97067.50;4967943;28;20055;-61
2020/12/04 03:22:22;;;;;;;122.57;55.65;;;;;;;3.72;89.65;97078.97;4966641;28;20133;-61
2020/12/04 03:24:48;;;;;;;121.25;54.88;;;;;;;4.00;87.77;97071.94;4966861;28;20470;-61
2020/12/04 03:27:13;;;;;;;107.32;49.47;;;;;;;3.42;87.88;96980.59;4966764;28;20043;-61
2020/12/04 03:29:39;;;;;;;100.88;46.92;;;;;;;3.88;87.98;97060.88;4967603;28;20043;-62
2020/12/04 03:32:05;;;;;;;105.45;51.03;;;;;;;4.02;87.66;97077.91;4968283;28;20418;-62
2020/12/04 03:34:30;;;;;;;105.65;47.90;;;;;;;3.82;87.69;97048.50;4966235;28;20096;-61
2020/12/04 03:36:56;;;;;;;103.10;48.22;;;;;;;4.00;87.52;97071.94;4966635;28;20085;-60
2020/12/04 03:39:22;;;;;;;119.65;57.67;;;;;;;3.93;88.25;97068.91;4966528;28;20137;-61
2020/12/04 03:41:48;;;;;;;110.45;55.17;;;;;;;4.01;88.32;97070.84;4967954;28;20043;-61
2020/12/04 03:44:14;;;;;;;96.38;45.78;;;;;;;2.56;86.90;96832.25;4968063;28;20045;-61
2020/12/04 03:46:39;;;;;;;92.50;42.58;;;;;;;4.12;87.06;97079.50;4966341;28;20050;-60
2020/12/04 03:49:05;;;;;;;92.10;43.40;;;;;;;3.82;87.19;97018.34;4966213;28;20030;-62
2020/12/04 03:51:30;;;;;;;99.95;46.60;;;;;;;4.18;87.69;97064.47;4965835;28;20045;-62
2020/12/04 03:53:56;;;;;;;94.07;45.22;;;;;;;4.20;87.06;97074.00;4967500;28;20049;-61
2020/12/04 03:56:21;;;;;;;95.10;44.60;;;;;;;4.14;87.23;97072.53;4965797;28;20492;-62
2020/12/04 03:58:46;;;;;;;106.95;46.92;;;;;;;4.14;87.45;97069.78;4967262;28;20030;-61
2020/12/04 04:01:12;;;;;;;98.93;44.65;;;;;;;4.04;87.22;97056.47;4965692;28;20105;-61
2020/12/04 04:03:38;;;;;;;118.35;50.35;;;;;;;4.10;88.07;97079.00;4965820;28;20042;-63
2020/12/04 04:06:03;;;;;;;121.80;55.42;;;;;;;3.54;87.48;97044.50;4966974;28;20038;-61
2020/12/04 04:08:28;;;;;;;123.47;53.58;;;;;;;4.21;87.70;97091.22;4967048;28;20525;-60
2020/12/04 04:10:54;;;;;;;112.47;49.22;;;;;;;4.17;87.42;97085.59;4966798;28;20043;-61
2020/12/04 04:13:19;;;;;;;111.03;47.58;;;;;;;4.23;87.65;97078.00;4965582;28;20038;-59
2020/12/04 04:15:45;;;;;;;119.88;51.03;;;;;;;4.19;87.95;97080.59;4965557;28;20046;-59
2020/12/04 04:18:10;;;;;;;101.05;44.58;;;;;;;4.22;87.46;97077.19;4965436;28;20054;-59
2020/12/04 04:20:35;;;;;;;91.60;40.20;;;;;;;3.71;87.79;97022.59;4966680;28;20042;-63
2020/12/04 04:23:01;;;;;;;79.45;38.50;;;;;;;4.13;88.01;97070.94;4966913;28;20034;-60
2020/12/04 04:25:26;;;;;;;77.95;36.28;;;;;;;4.11;88.26;97080.63;4966641;28;20035;-60
2020/12/04 04:27:52;;;;;;;77.78;36.58;;;;;;;3.81;88.04;97068.78;4966721;28;20034;-60
2020/12/04 04:30:18;;;;;;;87.72;37.97;;;;;;;4.27;87.49;97078.94;4965110;28;20043;-60
2020/12/04 04:32:43;;;;;;;77.97;40.05;;;;;;;4.14;88.39;97115.59;4965667;28;20112;-61
2020/12/04 04:35:08;;;;;;;82.75;40.08;;;;;;;3.70;88.56;97003.75;4965035;28;20046;-60
2020/12/04 04:37:35;;;;;;;86.43;39.63;;;;;;;4.05;88.79;97077.25;4966650;28;20035;-60
2020/12/04 04:40:00;;;;;;;80.60;37.90;;;;;;;3.98;89.08;97065.97;4966297;28;20030;-61
2020/12/04 04:42:26;;;;;;;77.40;37.88;;;;;;;4.02;89.29;97066.94;4964537;28;20027;-62
2020/12/04 04:44:51;;;;;;;77.57;37.33;;;;;;;4.05;89.49;97065.47;4965247;28;20573;-61
2020/12/04 04:47:19;;;;;;;68.78;33.05;;;;;;;4.11;89.07;97081.41;4965123;28;20494;-61
2020/12/04 04:49:47;;;;;;;68.65;32.85;;;;;;;4.03;89.65;97085.00;4966449;28;20062;-61
2020/12/04 04:52:14;;;;;;;69.60;31.58;;;;;;;4.08;89.33;97084.00;4971318;28;20113;-61
2020/12/04 04:54:46;;;;;;;66.25;30.90;;;;;;;4.12;89.40;97077.56;4965207;28;20030;-60
2020/12/04 04:57:13;;;;;;;62.65;31.02;;;;;;;3.75;89.66;97039.97;4966434;28;20030;-60
2020/12/04 04:59:42;;;;;;;65.63;31.77;;;;;;;3.97;89.68;97100.00;4967051;28;20041;-62
2020/12/04 05:02:12;;;;;;;66.28;29.70;;;;;;;3.86;91.03;97095.19;4964666;28;20125;-60
2020/12/04 05:04:52;;;;;;;60.13;29.58;;;;;;;3.91;91.08;97093.09;4965155;28;20589;-59
2020/12/04 05:07:42;;;;;;;59.72;30.25;;;;;;;3.84;91.17;97076.34;4964594;28;21080;-60
2020/12/04 05:10:13;;;;;;;92.47;43.70;;;;;;;4.00;91.16;97101.31;4965967;28;20049;-60
2020/12/04 05:12:44;;;;;;;167.85;75.75;;;;;;;3.70;91.44;97042.88;4964609;28;20034;-60
2020/12/04 05:15:23;;;;;;;130.95;58.10;;;;;;;3.66;91.31;97036.44;4964415;28;20091;-60
2020/12/04 05:18:10;;;;;;;101.32;45.92;;;;;;;4.13;91.00;97101.09;4964308;28;20049;-60
2020/12/04 05:20:38;;;;;;;86.72;40.15;;;;;;;3.49;91.03;97009.09;4966142;28;20117;-60
2020/12/04 05:23:04;;;;;;;80.50;36.05;;;;;;;4.29;89.24;97107.66;4966024;28;20150;-59
2020/12/04 05:25:40;;;;;;;82.35;38.60;;;;;;;4.26;89.29;97111.06;4966331;28;20034;-59
2020/12/04 05:28:39;;;;;;;80.07;37.35;;;;;;;3.88;89.32;97071.84;4964344;28;20466;-59
2020/12/04 05:31:09;;;;;;;77.97;35.92;;;;;;;4.31;89.20;97124.59;4974035;28;20532;-60
2020/12/04 05:33:35;;;;;;;74.75;32.38;;;;;;;4.06;89.83;97128.19;4964300;28;20086;-60
2020/12/04 05:36:03;;;;;;;74.00;33.83;;;;;;;3.95;91.70;97121.44;4965964;28;20046;-60
2020/12/04 05:38:29;;;;;;;65.82;30.80;;;;;;;4.19;90.20;97121.69;4964142;28;20043;-60
2020/12/04 05:41:08;;;;;;;68.13;30.67;;;;;;;4.26;89.36;97122.03;4965726;28;20034;-60
2020/12/04 05:43:36;;;;;;;66.95;30.73;;;;;;;4.35;88.77;97141.97;4965931;28;20039;-61
2020/12/04 05:46:21;;;;;;;64.03;31.00;;;;;;;4.28;88.89;97125.22;4965530;28;20034;-62
2020/12/04 05:49:04;;;;;;;66.57;30.27;;;;;;;4.33;88.58;97127.78;4964355;28;20043;-60
2020/12/04 05:51:31;;;;;;;71.32;33.35;;;;;;;4.36;88.78;97127.13;4964011;28;20043;-61
2020/12/04 05:53:57;;;;;;;68.63;33.78;;;;;;;4.36;88.70;97127.13;4967967;28;20426;-60
2020/12/04 05:56:23;;;;;;;65.50;32.33;;;;;;;4.46;88.38;97125.97;4967939;28;20443;-61
2020/12/04 05:58:54;;;;;;;92.53;38.88;;;;;;;4.35;88.57;97119.22;4968106;28;20046;-60
2020/12/04 06:01:21;;;;;;;141.55;62.60;;;;;;;2.95;87.71;96900.38;4967527;28;20034;-61
2020/12/04 06:03:53;;;;;;;243.95;97.55;;;;;;;4.65;86.81;97129.09;4969588;28;20034;-62
2020/12/04 06:06:28;;;;;;;205.43;86.87;;;;;;;4.56;87.40;97145.63;4968114;28;20033;-61
2020/12/04 06:09:01;;;;;;;153.25;67.03;;;;;;;4.54;87.87;97145.13;4968054;28;20429;-63
2020/12/04 06:11:32;;;;;;;104.32;46.95;;;;;;;4.60;88.06;97132.84;4967525;28;20425;-63
2020/12/04 06:13:59;;;;;;;89.10;41.67;;;;;;;4.53;87.05;97132.56;4967699;28;20038;-61
2020/12/04 06:16:25;;;;;;;81.63;41.10;;;;;;;4.18;88.31;97114.63;4968789;28;20038;-60
2020/12/04 06:18:50;;;;;;;92.60;45.00;;;;;;;4.41;89.24;97140.66;4969434;28;20100;-61
2020/12/04 06:21:35;;;;;;;95.47;45.92;;;;;;;4.58;88.70;97151.56;4969407;28;20430;-60
2020/12/04 06:24:08;;;;;;;94.60;44.67;;;;;;;4.42;87.93;97131.31;4967454;28;20481;-60
2020/12/04 06:26:49;;;;;;;90.45;43.75;;;;;;;3.79;87.05;97007.25;4967231;28;20089;-61
2020/12/04 06:29:14;;;;;;;97.87;43.70;;;;;;;4.85;86.63;97155.00;4968903;28;20426;-60
2020/12/04 06:31:40;;;;;;;72.43;36.33;;;;;;;4.05;87.67;97101.91;4969011;28;20122;-60
2020/12/04 06:34:18;;;;;;;80.43;35.38;;;;;;;4.07;91.86;97168.19;4969029;28;20059;-60
2020/12/04 06:36:44;;;;;;;81.80;35.90;;;;;;;4.27;90.61;97133.75;4968709;28;20039;-61
2020/12/04 06:39:26;;;;;;;85.38;37.42;;;;;;;4.61;89.28;97161.91;4967391;28;20030;-60
2020/12/04 06:41:51;;;;;;;76.82;36.38;;;;;;;4.58;88.57;97153.50;4968595;28;20045;-61
2020/12/04 06:44:18;;;;;;;86.72;37.97;;;;;;;4.68;88.27;97160.56;4963932;28;20471;-60
2020/12/04 06:46:47;;;;;;;81.50;38.63;;;;;;;4.35;87.31;97106.34;4949187;28;20481;-62
2020/12/04 06:52:09;;;;;;;99.45;48.25;;;;;;;4.42;86.81;97109.38;4949156;28;20134;-60
2020/12/04 06:54:38;;;;;;;120.63;53.50;;;;;;;4.49;86.81;97097.88;4947973;28;20035;-60
2020/12/04 06:57:04;;;;;;;116.53;57.83;;;;;;;4.59;86.28;97097.50;4949136;28;20492;-60
2020/12/04 06:59:35;;;;;;;129.90;60.75;;;;;;;5.06;85.75;97166.84;4949189;28;20296;-60
2020/12/04 07:02:05;;;;;;;105.28;50.92;;;;;;;5.05;85.37;97170.69;4947584;29;20058;-60
2020/12/04 07:04:32;;;;;;;103.03;53.95;;;;;;;4.60;85.54;97116.38;4952869;28;20933;-60
2020/12/04 07:07:09;;;;;;;87.68;47.17;;;;;;;5.04;85.66;97163.63;4965257;28;20045;-62
2020/12/04 07:09:35;;;;;;;95.85;45.97;;;;;;;5.14;84.88;97182.47;4967064;28;20039;-62
2020/12/04 07:12:01;;;;;;;96.13;45.75;;;;;;;5.19;85.04;97193.22;4967813;28;20094;-62
2020/12/04 07:14:27;;;;;;;103.22;53.75;;;;;;;5.07;84.69;97151.97;4967979;28;20031;-57
2020/12/04 07:16:54;;;;;;;148.95;75.90;;;;;;;5.31;84.17;97168.63;4967020;28;20047;-59
2020/12/04 07:19:20;;;;;;;140.02;69.32;;;;;;;3.76;84.35;96942.94;4967091;28;20179;-64
2020/12/04 07:21:46;;;;;;;128.00;67.63;;;;;;;5.20;84.56;97167.41;4967277;28;20042;-61
2020/12/04 07:24:11;;;;;;;151.68;73.85;;;;;;;4.96;84.19;97120.53;4967560;28;20030;-60
2020/12/04 07:26:42;;;;;;;145.20;74.47;;;;;;;5.32;84.69;97164.72;4967034;28;20042;-62
2020/12/04 07:29:09;;;;;;;132.48;64.45;;;;;;;5.21;84.67;97147.03;4968056;28;20035;-60
2020/12/04 07:31:34;;;;;;;124.78;58.95;;;;;;;5.37;84.08;97162.59;4967534;28;20121;-59
2020/12/04 07:34:00;;;;;;;100.13;50.90;;;;;;;5.25;84.49;97162.50;4967158;28;20070;-60
2020/12/04 07:36:27;;;;;;;109.47;53.63;;;;;;;5.24;84.77;97151.84;4967460;28;20552;-62
2020/12/04 07:38:58;;;;;;;146.60;71.65;;;;;;;5.50;84.29;97174.47;4965653;28;20035;-60
2020/12/04 07:41:32;;;;;;;171.55;86.68;;;;;;;3.05;83.41;96791.41;4967391;28;20451;-62
2020/12/04 07:43:59;;;;;;;164.20;86.10;;;;;;;5.49;83.34;97181.06;4967723;28;20042;-60
2020/12/04 07:46:24;;;;;;;169.10;85.40;;;;;;;4.54;83.96;97040.91;4967220;28;20090;-62
2020/12/04 07:49:02;;;;;;;173.13;87.95;;;;;;;5.03;83.45;97085.13;4965500;28;20600;-59
2020/12/04 07:51:30;;;;;;;175.80;92.22;;;;;;;5.68;83.37;97173.16;4965155;28;20047;-60
2020/12/04 07:53:56;;;;;;;274.80;136.00;;;;;;;5.64;83.44;97166.75;4964311;28;20577;-63
2020/12/04 07:56:25;;;;;;;285.00;140.00;;;;;;;4.87;84.30;97133.53;4958879;28;20182;-68
2020/12/04 07:59:11;;;;;;;254.75;122.32;;;;;;;4.68;84.79;97046.94;4966918;28;20042;-60
2020/12/04 08:01:41;;;;;;;197.77;103.78;;;;;;;5.66;85.16;97167.19;4966706;28;20045;-61
2020/12/04 08:04:10;;;;;;;164.93;83.35;;;;;;;3.80;84.85;96845.28;4965500;28;20042;-61
2020/12/04 08:06:35;;;;;;;173.55;89.45;;;;;;;3.93;84.83;96871.66;4966890;28;20031;-61
2020/12/04 08:09:14;;;;;;;157.60;80.60;;;;;;;5.59;84.42;97133.97;4965419;28;20113;-61
2020/12/04 08:12:02;;;;;;;152.23;74.53;;;;;;;6.05;84.81;97177.75;4966767;28;20060;-63
2020/12/04 08:14:29;;;;;;;154.13;72.97;;;;;;;5.71;84.81;97117.53;4966734;28;20339;-64
2020/12/04 08:16:59;;;;;;;170.20;79.03;;;;;;;6.10;85.84;97181.06;4965678;28;20105;-63
2020/12/04 08:19:29;;;;;;;203.82;92.22;;;;;;;5.85;85.79;97140.06;4964776;28;20313;-62
2020/12/04 08:22:04;;;;;;;164.55;76.85;;;;;;;5.95;86.17;97134.16;4966673;28;20037;-61
2020/12/04 08:24:34;;;;;;;178.05;81.10;;;;;;;3.90;86.42;96839.44;4966733;28;20042;-63
2020/12/04 08:27:14;;;;;;;184.27;79.03;;;;;;;6.20;87.08;97185.34;4966358;28;20508;-60
2020/12/04 08:30:00;;;;;;;187.00;80.45;;;;;;;6.30;87.75;97206.13;4966699;28;20038;-62
2020/12/04 08:32:25;;;;;;;195.63;86.45;;;;;;;5.90;87.61;97110.44;4966452;28;20610;-61
2020/12/04 08:34:51;;;;;;;216.45;96.60;;;;;;;6.34;88.00;97202.34;4964389;28;20034;-62
2020/12/04 08:37:17;;;;;;;199.65;90.97;;;;;;;6.45;87.72;97186.25;4965552;28;20039;-59
2020/12/04 08:39:45;;;;;;;239.73;111.07;;;;;;;6.52;87.73;97192.78;4946975;28;20043;-62
2020/12/04 08:42:29;;;;;;;222.55;102.95;;;;;;;6.54;87.31;97190.50;4948125;28;20518;-63
2020/12/04 08:45:01;;;;;;;206.57;87.25;;;;;;;5.79;85.82;97036.97;4947472;28;20043;-63
2020/12/04 08:47:45;;;;;;;216.63;96.50;;;;;;;6.10;86.04;97079.31;4946559;28;20051;-61
2020/12/04 08:50:21;;;;;;;212.02;93.25;;;;;;;6.63;86.53;97177.44;4946992;28;20118;-66
2020/12/04 08:52:54;;;;;;;203.90;86.72;;;;;;;6.32;86.71;97113.88;4950039;28;20035;-63
2020/12/04 08:55:22;;;;;;;215.25;87.00;;;;;;;6.23;86.31;97084.88;4966440;28;20039;-64
2020/12/04 08:57:49;;;;;;;194.32;86.13;;;;;;;6.65;86.63;97141.31;4964439;28;20097;-66
2020/12/04 09:00:17;;;;;;;271.17;117.78;;;;;;;6.84;86.36;97160.84;4966399;28;20398;-67
2020/12/04 09:02:43;;;;;;;231.27;92.68;;;;;;;6.90;86.09;97159.47;4966136;28;20125;-66
2020/12/04 09:05:11;;;;;;;213.40;89.75;;;;;;;5.13;87.08;96898.88;4964835;28;20568;-67
2020/12/04 09:07:38;;;;;;;218.32;86.43;;;;;;;6.53;88.98;97166.88;4964345;28;20038;-67
2020/12/04 09:10:04;;;;;;;229.75;80.38;;;;;;;6.54;89.58;97157.47;4966272;28;20141;-66
2020/12/04 09:12:31;;;;;;;235.80;83.30;;;;;;;5.94;90.11;97036.34;4965834;28;20046;-65
2020/12/04 09:14:57;;;;;;;226.38;71.55;;;;;;;6.69;89.66;97159.56;4946542;28;20039;-67
2020/12/04 09:17:22;;;;;;;198.65;67.63;;;;;;;6.46;89.67;97122.63;4946611;28;20235;-66
2020/12/04 09:19:47;;;;;;;181.20;57.85;;;;;;;6.65;90.51;97158.66;4946292;28;20051;-66
2020/12/04 09:22:15;;;;;;;173.02;55.63;;;;;;;5.32;90.99;96967.00;4958297;28;20121;-66
2020/12/04 09:24:41;;;;;;;187.45;59.60;;;;;;;5.59;91.07;97004.84;4965224;28;20093;-63
2020/12/04 09:27:07;;;;;;;192.15;58.22;;;;;;;6.44;92.33;97135.09;4963323;28;20031;-62
2020/12/04 09:29:33;;;;;;;178.00;57.70;;;;;;;6.45;93.02;97143.00;4956606;28;20035;-62
2020/12/04 09:32:05;;;;;;;184.98;60.53;;;;;;;6.21;92.65;97076.97;4946255;28;20549;-60
2020/12/04 09:34:31;;;;;;;177.18;59.53;;;;;;;5.66;92.83;96980.34;4947439;28;20066;-63
2020/12/04 09:37:08;;;;;;;172.95;58.85;;;;;;;6.59;93.28;97135.22;4965455;28;20035;-62
2020/12/04 09:39:33;;;;;;;157.07;56.03;;;;;;;6.21;92.98;97076.97;4963712;28;20073;-61
2020/12/04 09:41:59;;;;;;;142.63;54.80;;;;;;;6.39;93.24;97067.34;4964575;28;20450;-62
2020/12/04 09:44:24;;;;;;;140.98;57.25;;;;;;;6.43;92.29;97084.78;4963394;28;20126;-62
2020/12/04 09:46:49;;;;;;;141.23;54.67;;;;;;;6.86;92.00;97114.50;4963510;28;20039;-61
2020/12/04 09:49:15;;;;;;;140.30;53.58;;;;;;;6.91;91.01;97098.53;4962590;28;20494;-62
2020/12/04 09:51:40;;;;;;;123.05;51.08;;;;;;;6.93;89.87;97082.47;4963837;28;20051;-62
2020/12/04 09:54:06;;;;;;;131.15;51.10;;;;;;;6.08;89.04;96935.09;4964165;28;20410;-62
2020/12/04 09:56:31;;;;;;;126.90;51.47;;;;;;;7.19;89.58;97102.16;4965524;28;20070;-62
2020/12/04 09:58:56;;;;;;;120.30;49.53;;;;;;;7.34;88.88;97115.25;4964841;28;20084;-62
2020/12/04 10:01:22;;;;;;;121.68;51.67;;;;;;;7.32;88.61;97089.97;4964629;28;20038;-63
2020/12/04 10:03:48;;;;;;;138.80;52.92;;;;;;;7.63;87.88;97111.38;4965823;28;20038;-63
2020/12/04 10:06:14;;;;;;;118.80;50.65;;;;;;;7.22;86.62;97051.88;4964650;28;20031;-62
2020/12/04 10:08:39;;;;;;;112.80;46.78;;;;;;;7.72;86.97;97104.56;4965733;28;20038;-62
2020/12/04 10:11:08;;;;;;;120.25;48.10;;;;;;;7.69;86.74;97097.00;4964270;28;20046;-69
2020/12/04 10:13:34;;;;;;;115.00;44.83;;;;;;;5.63;87.38;96773.03;4965132;28;20118;-61
2020/12/04 10:16:04;;;;;;;113.32;46.95;;;;;;;7.71;87.10;97096.66;4964628;28;20585;-61
2020/12/04 10:18:31;;;;;;;116.55;48.97;;;;;;;7.61;87.53;97078.66;4964009;28;20097;-64
2020/12/04 10:20:57;;;;;;;125.55;51.55;;;;;;;7.59;86.40;97061.66;4964270;28;20079;-66
2020/12/04 10:23:22;;;;;;;134.00;52.40;;;;;;;7.43;87.33;97024.16;4979238;28;20604;-61
2020/12/04 10:25:48;;;;;;;135.00;51.67;;;;;;;7.98;87.04;97095.03;4963634;28;20047;-63
2020/12/04 10:28:13;;;;;;;118.53;48.38;;;;;;;8.10;85.84;97081.97;4964683;28;20031;-63
2020/12/04 10:30:39;;;;;;;116.22;51.85;;;;;;;7.70;85.31;97018.66;4965153;28;20093;-63
2020/12/04 10:33:04;;;;;;;114.75;50.90;;;;;;;8.29;84.59;97078.56;4965131;28;20085;-62
2020/12/04 10:35:29;;;;;;;119.53;52.88;;;;;;;8.25;84.57;97061.91;4965215;28;20097;-63
2020/12/04 10:37:55;;;;;;;109.95;50.30;;;;;;;8.19;84.97;97032.16;4963825;28;20406;-62
2020/12/04 10:40:20;;;;;;;105.88;49.17;;;;;;;8.60;83.45;97065.56;4966666;28;20085;-63
2020/12/04 10:42:46;;;;;;;110.45;49.17;;;;;;;8.66;83.14;97068.88;4968217;28;20043;-64
2020/12/04 10:45:11;;;;;;;108.20;52.05;;;;;;;8.68;82.51;97066.53;4968070;28;20038;-62
2020/12/04 10:47:36;;;;;;;123.13;60.85;;;;;;;8.27;83.21;97014.63;4967667;28;20033;-64
2020/12/04 10:50:02;;;;;;;123.03;55.30;;;;;;;8.60;83.16;97064.78;4968584;28;20413;-63
2020/12/04 10:52:27;;;;;;;100.50;46.95;;;;;;;8.57;83.37;97062.72;4967728;28;20065;-63
2020/12/04 10:54:53;;;;;;;109.68;51.10;;;;;;;8.22;83.52;97012.13;4966503;28;20043;-64
2020/12/04 10:57:18;;;;;;;105.65;49.80;;;;;;;8.58;83.66;97058.81;4967485;28;20046;-64
2020/12/04 10:59:44;;;;;;;105.93;48.40;;;;;;;8.69;83.44;97054.34;4967709;28;20026;-64
2020/12/04 11:02:17;;;;;;;105.47;50.42;;;;;;;8.83;82.25;97054.69;4965259;28;20043;-59
2020/12/04 11:07:27;;;;;;;93.05;44.17;;;;;;;8.64;82.36;97030.59;4964711;28;20210;-61
2020/12/04 11:09:52;;;;;;;102.68;45.22;;;;;;;8.57;82.25;97013.03;4967319;28;20161;-64
2020/12/04 11:12:18;;;;;;;94.13;46.25;;;;;;;8.88;82.54;97051.66;4967468;28;20031;-65
2020/12/04 11:14:43;;;;;;;99.20;44.60;;;;;;;8.57;82.11;97007.50;4968336;28;20031;-66
2020/12/04 11:17:09;;;;;;;93.97;45.05;;;;;;;7.84;81.56;96874.06;4966257;28;20082;-67
2020/12/04 11:19:35;;;;;;;96.20;48.63;;;;;;;9.06;80.68;97042.59;4967931;28;20070;-67
2020/12/04 11:22:01;;;;;;;98.15;47.97;;;;;;;9.16;80.21;97025.47;4966764;28;20549;-68
2020/12/04 11:24:27;;;;;;;86.72;43.65;;;;;;;9.25;79.96;97033.53;4966363;28;20035;-66
2020/12/04 11:26:52;;;;;;;88.70;44.65;;;;;;;8.79;80.07;96966.22;4967639;28;20042;-66
2020/12/04 11:29:18;;;;;;;92.43;47.22;;;;;;;9.09;80.49;97030.84;4968050;28;20050;-68